メインページ
METAR-TAF:

METAR-TAF

空港 :

木更津駐屯地

木更津, 日本

緯度: 35-24N, 経度: 139-55E, 海抜: 3m

現時点の気象観測

当レポートは3時間33分前の03:50(UTC)に作成
北東の風 5kt
気温 26°C
湿度 74%
気圧 1012 hPa
視程10km以上
高度1500ftの雲はほとんどない
高度2000ftの千切れ雲あり
高度3500ftの千切れ雲あり

METAR: RJTK 200350Z 04005KT 9999 FEW015 BKN020 BKN035 26/21 Q1012 RMK 1CU015 6CU020 7CU035 A2990

時間: 16:23 (07:23 UTC)


TAF: 見つかりません

4,000以上の空港の気象観測と天気予報(METAR報とTAF報)

利用可能な観測所は地図上に黄色い丸と赤い丸で示す。

丸の上にカーソルを重ねると観測所名を参照できる。

次にクリックすると気象観測と天気予報を参照できる。

マップの切り替え:黒色「×」印の緑ボタンをクリックして拡大、「-」印の緑ボタンをクリックして縮小、緑色の三角印をクリックして隣りの地図に切り替え


METAR-TAF: